x

Santa Monica Basin - 33nm Wsw Of Santa Monica, Ca (46025) Wave Buoy

10:50 - Sun 27th Jul 2014 All times are PDT. -7 hours from GMT.

  • Sig Wave height 2.6ft
  • Swell Direction
  • Peak Period 15s
  • Average Period 5s
  • Wind
    11mph, 13mph gusts
  • Sea Temp 69°f
  • Ar Temp 68°f
  • Sea Pressure 1014.4mb
  • Santa Monica Basin - 33nm Wsw Of Santa Monica, Ca
  • Santa Monica Basin - 33nm Wsw Of Santa Monica, Ca

More Historic Weather Station data

Upgrade to MSW Pro to gain access to the past 30 days of data for over 8000 Wavebouys and Weather Stations around the globe.

Join Pro

Comparision Forecast

View Surf forecast
   
Dom 07/27 10:50 2.5ft 15s 5s 11 13 mph 1014.4mb 69f 68f
9:50 3.5ft 15s 5s 13 16 mph 1014.1mb 69f 68f
8:50 2.5ft 15s 5s 9 11 mph 1013.9mb 69f 68f
6:50 2.5ft 15s 4s 11 13 mph 1013.2mb 69f 68f
5:50 2.5ft 15s 5s 11 13 mph 1013.7mb 69f 68f
4:50 2.5ft 15s 5s 16 18 mph 1013.9mb 70f 68f
3:50 2.5ft 15s 7s 16 20 mph 1014.2mb 71f 68f
2:50 2ft 15s 7s 11 13 mph 1015.6mb 69f 67f
1:50 2.5ft 15s 8s 9 11 mph 1016.6mb 70f 67f
12:50 2ft 15s 7s 2
mph
1016.4mb 69f 68f
11:50 2ft 15s 7s 2 4 mph 1016.6mb 69f 68f
10:50 2ft 15s 6s 4
mph
1016.1mb 68f 67f
9:50 2.5ft 15s 6s 4 7 mph 1016.1mb 68f 67f
8:50 2.5ft 16s 6s 4
mph
1016mb 69f 67f
7:50 2.5ft 15s 6s 4 7 mph 1015.2mb 69f 66f
6:50 2.5ft 15s 6s 4 7 mph 1014.7mb 69f 66f
5:50 2.5ft 16s 6s 4 7 mph 1014.3mb 69f 66f
4:50 2.5ft 15s 6s 7 9 mph 1014.2mb 69f 66f
3:50 2.5ft 16s 6s 4
mph
1014.5mb 69f 66f
2:50 2.5ft 16s 6s 4 7 mph 1014.5mb 69f 66f
1:50 2.5ft 15s 6s 4
mph
1014.9mb 69f 66f
12:50 2ft 14s 6s 2 4 mph 1014.6mb 70f 66f
Sáb 07/26 11:50 2.5ft 16s 6s 2 4 mph 1014.7mb 68f 67f
10:50 2.5ft 14s 6s 2 4 mph 1014.7mb 68f 67f
9:50 2.5ft 15s 5s 7
mph
1014.6mb 68f 67f
8:50 2.5ft 16s 6s 9
mph
1013.9mb 69f 67f
7:50 2.5ft 16s 5s 11 13 mph 1013.3mb 68f 66f
6:50 2ft 16s 6s 13 16 mph 1012.9mb 69f 67f
5:50 1.6ft 16s 6s 11 13 mph 1012.8mb 69f 68f
4:50 2ft 16s 7s 9 11 mph 1013.4mb 69f 67f
3:50 2ft 16s 7s 9 11 mph 1013.8mb 69f 67f
2:50 2.5ft 16s 7s 7 9 mph 1014.5mb 70f 67f
1:50 2ft 15s 6s 7 9 mph 1014.9mb 70f 66f
12:50 2.5ft 17s 6s 4 7 mph 1015.1mb 70f 67f
11:50 2.5ft 16s 6s 4
mph
1015.4mb 69f 67f
10:50 2.5ft 16s 6s 4 7 mph 1015.5mb 68f 66f
9:50 2.5ft 16s 6s 2 4 mph 1015.3mb 69f 67f
8:50 3ft 17s 6s 2
mph
1014.8mb 69f 67f
7:50 2.5ft 6s 6s  -  2 mph 1014mb 69f 65f
6:50 2.5ft 6s 6s 7 9 mph 1013.6mb 70f 65f
5:50 2.5ft 6s 6s  -  2 mph 1013mb 70f 65f
4:50 2.5ft 17s 6s 4 7 mph 1012.6mb 70f 65f
3:50 2.5ft 15s 6s  -  2 mph 1012.6mb 70f 65f
2:50 2.5ft 17s 6s 4 7 mph 1012.9mb 69f 65f
1:50 2.5ft 15s 6s 4 7 mph 1012.7mb 69f 65f
12:50 2.5ft 14s 6s 4 7 mph 1012.9mb 68f 66f
Sex 07/25 11:50 2.5ft 15s 6s 7 9 mph 1013mb 68f 66f
10:50 2.5ft 8s 5s 7 9 mph 1012.9mb 68f 66f
9:50 2.5ft 17s 5s 9
mph
1012.8mb 68f 67f
8:50 2ft 17s 5s 9 11 mph 1012mb 68f 68f
7:50 2ft 15s 5s  -  2 mph 1011.6mb 69f 68f
6:50 2ft 14s 5s 4 7 mph 1010.9mb 69f 68f
5:50 2ft 15s 5s 2 4 mph 1011.1mb 70f 69f
4:50 2.5ft 15s 5s 4
mph
1011.5mb 69f 68f
3:50 2.5ft 15s 5s 4 7 mph 1012.1mb 69f 68f
2:50 2.5ft 16s 6s 7 9 mph 1012.6mb 68f 67f
1:50 3ft 7s 6s 9
mph
1012.5mb 68f 68f
12:50 3ft 6s 5s 9 11 mph 1012.6mb 68f 68f
11:50 3ft 8s 5s 7 9 mph 1012.3mb 68f 68f
10:50 3ft 7s 5s 9
mph
1012.2mb 68f 68f
9:50 3.5ft 7s 5s 11 13 mph 1011.9mb 67f 67f
8:50 3.5ft 5s 5s 9
mph
1011.7mb 67f 67f
7:50 3.5ft 6s 5s 9 11 mph 1011.2mb 67f 67f
6:50 3.5ft 6s 5s 9 11 mph 1010.9mb 67f 67f
5:50 4ft 6s 5s 4 7 mph 1010.5mb 67f 66f
4:50 4.5ft 7s 6s 2
mph
1010.4mb 67f 66f
3:50 4.5ft 6s 6s  -  2 mph 1010.1mb 68f 66f
2:50 5ft 6s 6s 4 7 mph 1010.1mb 68f 67f
1:50 4.5ft 7s 5s 4 7 mph 1010mb 68f 67f
12:50 5ft 6s 6s  -  2 mph 1009.8mb 68f 67f
Qui 07/24 11:50 5ft 6s 6s 4 7 mph 1009.4mb 68f 68f
10:50 4.5ft 6s 5s 4 7 mph 1008.8mb 68f 68f
9:50 4.5ft 7s 5s 11 13 mph 1008.2mb 68f 68f
8:50 4ft 6s 5s 11 13 mph 1007.6mb 69f 69f
6:50 3.5ft 6s 5s 9
mph
1007mb 69f 71f
5:50 3ft 6s 5s 11 13 mph 1007.1mb 70f 70f
4:50 3ft 6s 5s 4 7 mph 1007.8mb 71f 71f
3:50 2.5ft 16s 5s 2 4 mph 1008.5mb 69f 70f
2:50 2.5ft 6s 5s 7 9 mph 1009.3mb 69f 69f
1:50 2.5ft 7s 5s 7 9 mph 1009.7mb 69f 68f
12:50 2.5ft 17s 5s 2 4 mph 1010.2mb 70f 68f
11:50 2.5ft 8s 5s 7
mph
1010.3mb 69f 68f
10:50 3ft 6s 5s 7
mph
1010.7mb 69f 68f
9:50 2.5ft 7s 5s 4
mph
1010.9mb 68f 67f
8:50 3ft 5s 5s 4
mph
1011.1mb 68f 67f
7:50 3.5ft 6s 5s 4 7 mph 1011.2mb 68f 67f